sensor_id;sensor_type;location;lat;lon;timestamp;P1;durP1;ratioP1;P2;durP2;ratioP2
20711;SDS011;10517;50.742;4.224;2022-12-18T00:02:22;18.83;;;8.30;;
20711;SDS011;10517;50.742;4.224;2022-12-18T00:04:47;20.87;;;8.43;;
20711;SDS011;10517;50.742;4.224;2022-12-18T00:07:13;16.03;;;7.57;;
20711;SDS011;10517;50.742;4.224;2022-12-18T00:09:38;17.33;;;7.93;;
20711;SDS011;10517;50.742;4.224;2022-12-18T00:12:04;24.00;;;9.33;;
20711;SDS011;10517;50.742;4.224;2022-12-18T00:14:30;15.90;;;7.60;;
20711;SDS011;10517;50.742;4.224;2022-12-18T00:16:55;17.53;;;7.00;;
20711;SDS011;10517;50.742;4.224;2022-12-18T00:19:23;15.47;;;8.17;;
20711;SDS011;10517;50.742;4.224;2022-12-18T00:21:48;22.47;;;9.33;;
20711;SDS011;10517;50.742;4.224;2022-12-18T00:24:14;24.60;;;9.27;;
20711;SDS011;10517;50.742;4.224;2022-12-18T00:26:40;12.27;;;7.77;;
20711;SDS011;10517;50.742;4.224;2022-12-18T00:29:13;19.43;;;9.13;;
20711;SDS011;10517;50.742;4.224;2022-12-18T00:31:39;16.93;;;7.17;;
20711;SDS011;10517;50.742;4.224;2022-12-18T00:34:05;14.93;;;8.13;;
20711;SDS011;10517;50.742;4.224;2022-12-18T00:36:32;15.60;;;8.27;;
20711;SDS011;10517;50.742;4.224;2022-12-18T00:38:59;21.93;;;8.97;;
20711;SDS011;10517;50.742;4.224;2022-12-18T00:41:26;17.70;;;7.90;;
20711;SDS011;10517;50.742;4.224;2022-12-18T00:44:12;15.27;;;6.37;;
20711;SDS011;10517;50.742;4.224;2022-12-18T00:46:39;17.00;;;7.60;;
20711;SDS011;10517;50.742;4.224;2022-12-18T00:49:05;20.63;;;10.13;;
20711;SDS011;10517;50.742;4.224;2022-12-18T00:51:32;11.63;;;7.17;;
20711;SDS011;10517;50.742;4.224;2022-12-18T00:53:58;15.20;;;6.03;;
20711;SDS011;10517;50.742;4.224;2022-12-18T00:56:23;23.50;;;9.13;;
20711;SDS011;10517;50.742;4.224;2022-12-18T00:58:49;16.27;;;8.17;;
20711;SDS011;10517;50.742;4.224;2022-12-18T01:01:15;16.93;;;6.67;;
20711;SDS011;10517;50.742;4.224;2022-12-18T01:03:41;15.83;;;8.03;;
20711;SDS011;10517;50.742;4.224;2022-12-18T01:06:07;14.50;;;7.60;;
20711;SDS011;10517;50.742;4.224;2022-12-18T01:08:35;31.43;;;6.37;;
20711;SDS011;10517;50.742;4.224;2022-12-18T01:11:01;11.33;;;5.43;;
20711;SDS011;10517;50.742;4.224;2022-12-18T01:13:36;13.47;;;5.93;;
20711;SDS011;10517;50.742;4.224;2022-12-18T01:16:02;13.83;;;5.73;;
20711;SDS011;10517;50.742;4.224;2022-12-18T01:18:28;17.07;;;7.47;;
20711;SDS011;10517;50.742;4.224;2022-12-18T01:20:54;12.97;;;6.93;;
20711;SDS011;10517;50.742;4.224;2022-12-18T01:23:19;14.13;;;6.47;;
20711;SDS011;10517;50.742;4.224;2022-12-18T01:25:45;13.40;;;6.47;;
20711;SDS011;10517;50.742;4.224;2022-12-18T01:28:10;12.83;;;6.30;;
20711;SDS011;10517;50.742;4.224;2022-12-18T01:30:36;9.93;;;5.87;;
20711;SDS011;10517;50.742;4.224;2022-12-18T01:33:03;19.87;;;6.93;;
20711;SDS011;10517;50.742;4.224;2022-12-18T01:35:29;12.27;;;6.67;;
20711;SDS011;10517;50.742;4.224;2022-12-18T01:37:55;9.43;;;6.53;;
20711;SDS011;10517;50.742;4.224;2022-12-18T01:40:21;14.00;;;6.13;;
20711;SDS011;10517;50.742;4.224;2022-12-18T01:42:51;15.67;;;6.73;;
20711;SDS011;10517;50.742;4.224;2022-12-18T01:45:24;8.30;;;5.03;;
20711;SDS011;10517;50.742;4.224;2022-12-18T01:47:58;12.33;;;6.47;;
20711;SDS011;10517;50.742;4.224;2022-12-18T01:50:31;8.03;;;5.07;;
20711;SDS011;10517;50.742;4.224;2022-12-18T01:53:04;18.80;;;5.90;;
20711;SDS011;10517;50.742;4.224;2022-12-18T01:55:46;12.83;;;7.00;;
20711;SDS011;10517;50.742;4.224;2022-12-18T01:58:15;8.83;;;3.97;;
20711;SDS011;10517;50.742;4.224;2022-12-18T02:00:41;10.53;;;5.53;;
20711;SDS011;10517;50.742;4.224;2022-12-18T02:03:07;10.33;;;5.40;;
20711;SDS011;10517;50.742;4.224;2022-12-18T02:05:41;11.30;;;6.93;;
20711;SDS011;10517;50.742;4.224;2022-12-18T02:08:17;17.27;;;6.63;;
20711;SDS011;10517;50.742;4.224;2022-12-18T02:16:21;9.97;;;4.60;;
20711;SDS011;10517;50.742;4.224;2022-12-18T02:18:56;11.07;;;5.67;;
20711;SDS011;10517;50.742;4.224;2022-12-18T02:21:34;12.90;;;6.13;;
20711;SDS011;10517;50.742;4.224;2022-12-18T02:24:59;10.80;;;6.00;;
20711;SDS011;10517;50.742;4.224;2022-12-18T02:27:09;11.40;;;5.53;;
20711;SDS011;10517;50.742;4.224;2022-12-18T02:29:51;15.67;;;6.57;;
20711;SDS011;10517;50.742;4.224;2022-12-18T02:32:21;10.07;;;5.77;;
20711;SDS011;10517;50.742;4.224;2022-12-18T02:34:56;12.50;;;4.93;;
20711;SDS011;10517;50.742;4.224;2022-12-18T02:37:23;6.27;;;4.07;;
20711;SDS011;10517;50.742;4.224;2022-12-18T02:39:51;9.37;;;4.70;;
20711;SDS011;10517;50.742;4.224;2022-12-18T02:42:19;14.90;;;5.60;;
20711;SDS011;10517;50.742;4.224;2022-12-18T02:44:47;10.47;;;5.67;;
20711;SDS011;10517;50.742;4.224;2022-12-18T02:47:14;6.03;;;4.53;;
20711;SDS011;10517;50.742;4.224;2022-12-18T02:50:02;7.87;;;5.03;;
20711;SDS011;10517;50.742;4.224;2022-12-18T02:52:55;5.63;;;4.03;;
20711;SDS011;10517;50.742;4.224;2022-12-18T02:58:20;9.37;;;4.03;;
20711;SDS011;10517;50.742;4.224;2022-12-18T03:03:44;10.53;;;5.57;;
20711;SDS011;10517;50.742;4.224;2022-12-18T03:06:22;12.83;;;5.97;;
20711;SDS011;10517;50.742;4.224;2022-12-18T03:08:54;7.67;;;3.83;;
20711;SDS011;10517;50.742;4.224;2022-12-18T03:11:24;7.60;;;3.97;;
20711;SDS011;10517;50.742;4.224;2022-12-18T03:14:10;8.47;;;5.30;;
20711;SDS011;10517;50.742;4.224;2022-12-18T03:16:40;10.90;;;5.57;;
20711;SDS011;10517;50.742;4.224;2022-12-18T03:19:09;11.40;;;5.37;;
20711;SDS011;10517;50.742;4.224;2022-12-18T03:21:43;11.77;;;5.40;;
20711;SDS011;10517;50.742;4.224;2022-12-18T03:24:16;6.87;;;3.90;;
20711;SDS011;10517;50.742;4.224;2022-12-18T03:26:44;12.30;;;4.57;;
20711;SDS011;10517;50.742;4.224;2022-12-18T03:29:13;8.27;;;4.60;;
20711;SDS011;10517;50.742;4.224;2022-12-18T03:31:47;8.07;;;4.70;;
20711;SDS011;10517;50.742;4.224;2022-12-18T03:34:29;7.43;;;4.40;;
20711;SDS011;10517;50.742;4.224;2022-12-18T03:36:57;7.40;;;4.47;;
20711;SDS011;10517;50.742;4.224;2022-12-18T03:39:23;5.13;;;4.27;;
20711;SDS011;10517;50.742;4.224;2022-12-18T03:41:51;8.20;;;4.63;;
20711;SDS011;10517;50.742;4.224;2022-12-18T03:44:32;10.83;;;5.90;;
20711;SDS011;10517;50.742;4.224;2022-12-18T03:47:09;8.33;;;4.17;;
20711;SDS011;10517;50.742;4.224;2022-12-18T03:49:54;8.53;;;3.90;;
20711;SDS011;10517;50.742;4.224;2022-12-18T03:52:36;8.30;;;3.17;;
20711;SDS011;10517;50.742;4.224;2022-12-18T03:55:07;7.83;;;4.03;;
20711;SDS011;10517;50.742;4.224;2022-12-18T03:57:34;11.00;;;3.97;;
20711;SDS011;10517;50.742;4.224;2022-12-18T04:00:09;11.60;;;4.50;;
20711;SDS011;10517;50.742;4.224;2022-12-18T04:02:37;5.27;;;4.20;;
20711;SDS011;10517;50.742;4.224;2022-12-18T04:05:07;8.13;;;4.77;;
20711;SDS011;10517;50.742;4.224;2022-12-18T04:07:35;7.53;;;3.80;;
20711;SDS011;10517;50.742;4.224;2022-12-18T04:10:02;6.17;;;2.13;;
20711;SDS011;10517;50.742;4.224;2022-12-18T04:12:31;5.73;;;3.20;;
20711;SDS011;10517;50.742;4.224;2022-12-18T04:14:56;7.80;;;3.67;;
20711;SDS011;10517;50.742;4.224;2022-12-18T04:17:22;5.83;;;3.07;;
20711;SDS011;10517;50.742;4.224;2022-12-18T04:19:48;7.57;;;3.13;;
20711;SDS011;10517;50.742;4.224;2022-12-18T04:22:14;3.07;;;2.70;;
20711;SDS011;10517;50.742;4.224;2022-12-18T04:24:40;5.37;;;3.17;;
20711;SDS011;10517;50.742;4.224;2022-12-18T04:27:05;4.73;;;3.13;;
20711;SDS011;10517;50.742;4.224;2022-12-18T04:29:31;7.13;;;2.20;;
20711;SDS011;10517;50.742;4.224;2022-12-18T04:31:57;3.60;;;2.63;;
20711;SDS011;10517;50.742;4.224;2022-12-18T04:34:22;8.87;;;3.43;;
20711;SDS011;10517;50.742;4.224;2022-12-18T04:36:48;6.97;;;3.57;;
20711;SDS011;10517;50.742;4.224;2022-12-18T04:39:14;3.90;;;2.50;;
20711;SDS011;10517;50.742;4.224;2022-12-18T04:41:42;4.53;;;2.63;;
20711;SDS011;10517;50.742;4.224;2022-12-18T04:44:08;4.40;;;2.20;;
20711;SDS011;10517;50.742;4.224;2022-12-18T04:46:34;8.67;;;2.97;;
20711;SDS011;10517;50.742;4.224;2022-12-18T04:48:59;9.80;;;3.83;;
20711;SDS011;10517;50.742;4.224;2022-12-18T04:51:25;8.90;;;5.57;;
20711;SDS011;10517;50.742;4.224;2022-12-18T04:53:50;10.07;;;3.30;;
20711;SDS011;10517;50.742;4.224;2022-12-18T04:56:16;3.50;;;2.90;;
20711;SDS011;10517;50.742;4.224;2022-12-18T04:58:43;5.43;;;3.17;;
20711;SDS011;10517;50.742;4.224;2022-12-18T05:01:09;5.33;;;3.30;;
20711;SDS011;10517;50.742;4.224;2022-12-18T05:03:36;5.53;;;3.47;;
20711;SDS011;10517;50.742;4.224;2022-12-18T05:06:02;5.67;;;2.63;;
20711;SDS011;10517;50.742;4.224;2022-12-18T05:08:28;4.97;;;3.17;;
20711;SDS011;10517;50.742;4.224;2022-12-18T05:11:01;3.83;;;2.60;;
20711;SDS011;10517;50.742;4.224;2022-12-18T05:13:29;9.07;;;3.67;;
20711;SDS011;10517;50.742;4.224;2022-12-18T05:15:55;3.30;;;3.03;;
20711;SDS011;10517;50.742;4.224;2022-12-18T05:18:24;5.80;;;3.30;;
20711;SDS011;10517;50.742;4.224;2022-12-18T05:20:51;7.20;;;2.47;;
20711;SDS011;10517;50.742;4.224;2022-12-18T05:23:17;3.60;;;2.70;;
20711;SDS011;10517;50.742;4.224;2022-12-18T05:25:46;5.67;;;2.50;;
20711;SDS011;10517;50.742;4.224;2022-12-18T05:28:16;11.73;;;2.80;;
20711;SDS011;10517;50.742;4.224;2022-12-18T05:30:42;5.50;;;3.30;;
20711;SDS011;10517;50.742;4.224;2022-12-18T05:33:07;6.30;;;3.00;;
20711;SDS011;10517;50.742;4.224;2022-12-18T05:35:33;11.77;;;3.70;;
20711;SDS011;10517;50.742;4.224;2022-12-18T05:37:58;4.50;;;3.47;;
20711;SDS011;10517;50.742;4.224;2022-12-18T05:40:24;3.20;;;2.40;;
20711;SDS011;10517;50.742;4.224;2022-12-18T05:42:50;5.10;;;3.53;;
20711;SDS011;10517;50.742;4.224;2022-12-18T05:45:15;7.67;;;3.97;;
20711;SDS011;10517;50.742;4.224;2022-12-18T05:47:41;10.63;;;3.03;;
20711;SDS011;10517;50.742;4.224;2022-12-18T05:50:06;11.93;;;3.73;;
20711;SDS011;10517;50.742;4.224;2022-12-18T05:52:32;6.87;;;3.03;;
20711;SDS011;10517;50.742;4.224;2022-12-18T05:54:58;6.20;;;2.93;;
20711;SDS011;10517;50.742;4.224;2022-12-18T05:57:24;6.03;;;3.23;;
20711;SDS011;10517;50.742;4.224;2022-12-18T05:59:49;8.93;;;3.33;;
20711;SDS011;10517;50.742;4.224;2022-12-18T06:02:15;7.50;;;3.57;;
20711;SDS011;10517;50.742;4.224;2022-12-18T06:04:40;11.80;;;2.90;;
20711;SDS011;10517;50.742;4.224;2022-12-18T06:07:06;8.43;;;3.43;;
20711;SDS011;10517;50.742;4.224;2022-12-18T06:09:32;4.03;;;2.67;;
20711;SDS011;10517;50.742;4.224;2022-12-18T06:11:57;3.63;;;2.63;;
20711;SDS011;10517;50.742;4.224;2022-12-18T06:14:23;7.13;;;3.13;;
20711;SDS011;10517;50.742;4.224;2022-12-18T06:16:50;5.27;;;3.60;;
20711;SDS011;10517;50.742;4.224;2022-12-18T06:19:16;8.30;;;2.70;;
20711;SDS011;10517;50.742;4.224;2022-12-18T06:21:43;6.87;;;3.57;;
20711;SDS011;10517;50.742;4.224;2022-12-18T06:24:08;5.47;;;2.90;;
20711;SDS011;10517;50.742;4.224;2022-12-18T06:26:36;15.13;;;3.47;;
20711;SDS011;10517;50.742;4.224;2022-12-18T06:29:03;3.10;;;1.90;;
20711;SDS011;10517;50.742;4.224;2022-12-18T06:31:29;4.00;;;1.97;;
20711;SDS011;10517;50.742;4.224;2022-12-18T06:33:54;5.43;;;3.30;;
20711;SDS011;10517;50.742;4.224;2022-12-18T06:36:20;5.53;;;2.90;;
20711;SDS011;10517;50.742;4.224;2022-12-18T06:38:46;7.10;;;2.67;;
20711;SDS011;10517;50.742;4.224;2022-12-18T06:41:19;4.57;;;2.87;;
20711;SDS011;10517;50.742;4.224;2022-12-18T06:43:45;6.00;;;2.20;;
20711;SDS011;10517;50.742;4.224;2022-12-18T06:46:11;7.37;;;3.13;;
20711;SDS011;10517;50.742;4.224;2022-12-18T06:48:37;7.50;;;3.03;;
20711;SDS011;10517;50.742;4.224;2022-12-18T06:51:03;6.00;;;3.07;;
20711;SDS011;10517;50.742;4.224;2022-12-18T06:53:29;4.43;;;3.03;;
20711;SDS011;10517;50.742;4.224;2022-12-18T06:56:00;5.40;;;2.53;;
20711;SDS011;10517;50.742;4.224;2022-12-18T06:58:29;3.87;;;2.77;;
20711;SDS011;10517;50.742;4.224;2022-12-18T07:01:01;5.57;;;2.87;;
20711;SDS011;10517;50.742;4.224;2022-12-18T07:03:30;3.97;;;2.57;;
20711;SDS011;10517;50.742;4.224;2022-12-18T07:05:56;6.17;;;2.33;;
20711;SDS011;10517;50.742;4.224;2022-12-18T07:08:21;4.60;;;2.10;;
20711;SDS011;10517;50.742;4.224;2022-12-18T07:10:47;7.60;;;2.83;;
20711;SDS011;10517;50.742;4.224;2022-12-18T07:13:14;11.37;;;3.67;;
20711;SDS011;10517;50.742;4.224;2022-12-18T07:15:40;9.30;;;3.90;;
20711;SDS011;10517;50.742;4.224;2022-12-18T07:18:05;6.87;;;4.03;;
20711;SDS011;10517;50.742;4.224;2022-12-18T07:20:31;7.40;;;2.47;;
20711;SDS011;10517;50.742;4.224;2022-12-18T07:22:57;6.23;;;2.83;;
20711;SDS011;10517;50.742;4.224;2022-12-18T07:25:22;3.20;;;2.43;;
20711;SDS011;10517;50.742;4.224;2022-12-18T07:27:48;8.90;;;3.83;;
20711;SDS011;10517;50.742;4.224;2022-12-18T07:30:13;6.70;;;3.10;;
20711;SDS011;10517;50.742;4.224;2022-12-18T07:32:39;6.23;;;2.20;;
20711;SDS011;10517;50.742;4.224;2022-12-18T07:35:05;9.73;;;4.07;;
20711;SDS011;10517;50.742;4.224;2022-12-18T07:37:30;8.73;;;3.40;;
20711;SDS011;10517;50.742;4.224;2022-12-18T07:39:56;3.50;;;2.93;;
20711;SDS011;10517;50.742;4.224;2022-12-18T07:42:21;3.00;;;2.60;;
20711;SDS011;10517;50.742;4.224;2022-12-18T07:44:56;2.90;;;1.73;;
20711;SDS011;10517;50.742;4.224;2022-12-18T07:47:23;4.60;;;3.13;;
20711;SDS011;10517;50.742;4.224;2022-12-18T07:49:48;6.23;;;2.77;;
20711;SDS011;10517;50.742;4.224;2022-12-18T07:52:14;2.77;;;2.53;;
20711;SDS011;10517;50.742;4.224;2022-12-18T07:54:40;5.90;;;2.77;;
20711;SDS011;10517;50.742;4.224;2022-12-18T07:57:06;4.70;;;2.33;;
20711;SDS011;10517;50.742;4.224;2022-12-18T07:59:32;6.07;;;2.47;;
20711;SDS011;10517;50.742;4.224;2022-12-18T08:01:58;3.33;;;2.63;;
20711;SDS011;10517;50.742;4.224;2022-12-18T08:04:24;3.27;;;2.27;;
20711;SDS011;10517;50.742;4.224;2022-12-18T08:06:50;5.07;;;2.47;;
20711;SDS011;10517;50.742;4.224;2022-12-18T08:09:15;4.13;;;2.93;;
20711;SDS011;10517;50.742;4.224;2022-12-18T08:11:41;5.27;;;2.40;;
20711;SDS011;10517;50.742;4.224;2022-12-18T08:14:07;5.97;;;3.17;;
20711;SDS011;10517;50.742;4.224;2022-12-18T08:16:33;2.37;;;1.90;;
20711;SDS011;10517;50.742;4.224;2022-12-18T08:18:59;6.73;;;2.33;;
20711;SDS011;10517;50.742;4.224;2022-12-18T08:21:26;5.60;;;2.90;;
20711;SDS011;10517;50.742;4.224;2022-12-18T08:23:53;4.20;;;3.07;;
20711;SDS011;10517;50.742;4.224;2022-12-18T08:26:21;11.43;;;3.33;;
20711;SDS011;10517;50.742;4.224;2022-12-18T08:28:48;7.63;;;3.00;;
20711;SDS011;10517;50.742;4.224;2022-12-18T08:31:14;5.43;;;3.23;;
20711;SDS011;10517;50.742;4.224;2022-12-18T08:33:40;8.87;;;3.87;;
20711;SDS011;10517;50.742;4.224;2022-12-18T08:36:06;4.93;;;3.70;;
20711;SDS011;10517;50.742;4.224;2022-12-18T08:38:33;3.03;;;1.57;;
20711;SDS011;10517;50.742;4.224;2022-12-18T08:40:59;7.80;;;3.17;;
20711;SDS011;10517;50.742;4.224;2022-12-18T08:43:29;6.57;;;3.60;;
20711;SDS011;10517;50.742;4.224;2022-12-18T08:46:13;8.40;;;4.37;;
20711;SDS011;10517;50.742;4.224;2022-12-18T08:48:39;10.07;;;3.40;;
20711;SDS011;10517;50.742;4.224;2022-12-18T08:51:04;6.47;;;3.13;;
20711;SDS011;10517;50.742;4.224;2022-12-18T08:53:30;8.53;;;3.57;;
20711;SDS011;10517;50.742;4.224;2022-12-18T08:55:56;8.10;;;3.47;;
20711;SDS011;10517;50.742;4.224;2022-12-18T08:58:22;7.27;;;3.33;;
20711;SDS011;10517;50.742;4.224;2022-12-18T09:00:48;4.33;;;2.73;;
20711;SDS011;10517;50.742;4.224;2022-12-18T09:03:14;10.50;;;4.77;;
20711;SDS011;10517;50.742;4.224;2022-12-18T09:05:41;5.47;;;3.13;;
20711;SDS011;10517;50.742;4.224;2022-12-18T09:08:07;11.65;;;5.50;;
20711;SDS011;10517;50.742;4.224;2022-12-18T09:10:33;9.97;;;4.77;;
20711;SDS011;10517;50.742;4.224;2022-12-18T09:12:59;8.53;;;4.03;;
20711;SDS011;10517;50.742;4.224;2022-12-18T09:15:24;8.23;;;4.30;;
20711;SDS011;10517;50.742;4.224;2022-12-18T09:17:50;11.37;;;4.63;;
20711;SDS011;10517;50.742;4.224;2022-12-18T09:20:17;6.57;;;4.30;;
20711;SDS011;10517;50.742;4.224;2022-12-18T09:22:43;9.83;;;3.70;;
20711;SDS011;10517;50.742;4.224;2022-12-18T09:25:09;8.07;;;4.03;;
20711;SDS011;10517;50.742;4.224;2022-12-18T09:27:35;4.27;;;2.83;;
20711;SDS011;10517;50.742;4.224;2022-12-18T09:30:01;7.93;;;4.73;;
20711;SDS011;10517;50.742;4.224;2022-12-18T09:32:27;8.97;;;3.70;;
20711;SDS011;10517;50.742;4.224;2022-12-18T09:34:53;6.97;;;3.40;;
20711;SDS011;10517;50.742;4.224;2022-12-18T09:37:18;6.50;;;3.67;;
20711;SDS011;10517;50.742;4.224;2022-12-18T09:39:44;8.33;;;3.97;;
20711;SDS011;10517;50.742;4.224;2022-12-18T09:42:16;8.13;;;4.07;;
20711;SDS011;10517;50.742;4.224;2022-12-18T09:44:47;9.10;;;4.13;;
20711;SDS011;10517;50.742;4.224;2022-12-18T09:47:28;7.40;;;4.07;;
20711;SDS011;10517;50.742;4.224;2022-12-18T09:50:04;10.97;;;3.23;;
20711;SDS011;10517;50.742;4.224;2022-12-18T09:52:50;13.60;;;3.50;;
20711;SDS011;10517;50.742;4.224;2022-12-18T09:55:28;7.30;;;4.00;;
20711;SDS011;10517;50.742;4.224;2022-12-18T10:00:34;8.80;;;3.83;;
20711;SDS011;10517;50.742;4.224;2022-12-18T10:03:08;11.55;;;5.20;;
20711;SDS011;10517;50.742;4.224;2022-12-18T10:08:36;13.85;;;5.97;;
20711;SDS011;10517;50.742;4.224;2022-12-18T10:17:03;9.77;;;4.20;;
20711;SDS011;10517;50.742;4.224;2022-12-18T10:19:52;5.80;;;3.23;;
20711;SDS011;10517;50.742;4.224;2022-12-18T10:22:29;9.00;;;4.07;;
20711;SDS011;10517;50.742;4.224;2022-12-18T10:25:17;5.97;;;3.40;;
20711;SDS011;10517;50.742;4.224;2022-12-18T10:27:57;12.03;;;4.73;;
20711;SDS011;10517;50.742;4.224;2022-12-18T10:30:32;7.93;;;4.03;;
20711;SDS011;10517;50.742;4.224;2022-12-18T10:33:04;8.37;;;4.03;;
20711;SDS011;10517;50.742;4.224;2022-12-18T10:35:29;12.27;;;5.13;;
20711;SDS011;10517;50.742;4.224;2022-12-18T10:40:51;12.27;;;4.83;;
20711;SDS011;10517;50.742;4.224;2022-12-18T10:46:12;8.60;;;3.97;;
20711;SDS011;10517;50.742;4.224;2022-12-18T10:48:50;11.30;;;5.13;;
20711;SDS011;10517;50.742;4.224;2022-12-18T10:51:19;9.93;;;3.53;;
20711;SDS011;10517;50.742;4.224;2022-12-18T10:53:53;11.27;;;4.80;;
20711;SDS011;10517;50.742;4.224;2022-12-18T10:56:30;10.30;;;4.13;;
20711;SDS011;10517;50.742;4.224;2022-12-18T10:58:59;8.53;;;4.30;;
20711;SDS011;10517;50.742;4.224;2022-12-18T11:01:26;8.37;;;4.17;;
20711;SDS011;10517;50.742;4.224;2022-12-18T11:06:25;10.83;;;5.07;;
20711;SDS011;10517;50.742;4.224;2022-12-18T11:09:01;8.87;;;4.17;;
20711;SDS011;10517;50.742;4.224;2022-12-18T11:11:27;10.10;;;4.70;;
20711;SDS011;10517;50.742;4.224;2022-12-18T11:16:32;12.40;;;5.40;;
20711;SDS011;10517;50.742;4.224;2022-12-18T11:19:13;10.80;;;5.00;;
20711;SDS011;10517;50.742;4.224;2022-12-18T11:21:47;10.07;;;4.23;;
20711;SDS011;10517;50.742;4.224;2022-12-18T11:24:49;9.97;;;4.30;;
20711;SDS011;10517;50.742;4.224;2022-12-18T11:27:05;10.03;;;4.33;;
20711;SDS011;10517;50.742;4.224;2022-12-18T11:29:40;12.20;;;5.00;;
20711;SDS011;10517;50.742;4.224;2022-12-18T11:32:27;7.30;;;3.60;;
20711;SDS011;10517;50.742;4.224;2022-12-18T11:35:04;10.73;;;4.83;;
20711;SDS011;10517;50.742;4.224;2022-12-18T11:37:49;8.73;;;4.17;;
20711;SDS011;10517;50.742;4.224;2022-12-18T11:40:30;9.20;;;3.57;;
20711;SDS011;10517;50.742;4.224;2022-12-18T11:45:30;16.20;;;6.43;;
20711;SDS011;10517;50.742;4.224;2022-12-18T11:48:03;10.67;;;5.90;;
20711;SDS011;10517;50.742;4.224;2022-12-18T11:50:50;14.70;;;4.20;;
20711;SDS011;10517;50.742;4.224;2022-12-18T11:53:17;6.37;;;3.80;;
20711;SDS011;10517;50.742;4.224;2022-12-18T11:58:20;10.13;;;4.93;;
20711;SDS011;10517;50.742;4.224;2022-12-18T12:06:16;8.53;;;3.97;;
20711;SDS011;10517;50.742;4.224;2022-12-18T12:11:39;11.80;;;5.70;;
20711;SDS011;10517;50.742;4.224;2022-12-18T12:30:21;6.00;;;3.53;;
20711;SDS011;10517;50.742;4.224;2022-12-18T12:38:28;10.17;;;4.93;;
20711;SDS011;10517;50.742;4.224;2022-12-18T12:41:21;14.40;;;5.53;;
20711;SDS011;10517;50.742;4.224;2022-12-18T12:44:13;12.00;;;5.77;;
20711;SDS011;10517;50.742;4.224;2022-12-18T12:46:42;15.20;;;5.90;;
20711;SDS011;10517;50.742;4.224;2022-12-18T12:49:13;13.70;;;6.20;;
20711;SDS011;10517;50.742;4.224;2022-12-18T12:52:28;14.67;;;5.60;;
20711;SDS011;10517;50.742;4.224;2022-12-18T12:54:39;10.40;;;5.47;;
20711;SDS011;10517;50.742;4.224;2022-12-18T12:57:08;13.60;;;6.10;;
20711;SDS011;10517;50.742;4.224;2022-12-18T13:00:17;16.97;;;7.07;;
20711;SDS011;10517;50.742;4.224;2022-12-18T13:08:24;14.20;;;5.93;;
20711;SDS011;10517;50.742;4.224;2022-12-18T13:10:54;13.80;;;6.43;;
20711;SDS011;10517;50.742;4.224;2022-12-18T13:13:51;13.70;;;5.77;;
20711;SDS011;10517;50.742;4.224;2022-12-18T13:16:20;21.33;;;7.30;;
20711;SDS011;10517;50.742;4.224;2022-12-18T13:18:50;12.67;;;5.83;;
20711;SDS011;10517;50.742;4.224;2022-12-18T13:21:27;13.23;;;7.40;;
20711;SDS011;10517;50.742;4.224;2022-12-18T13:23:56;20.23;;;6.87;;
20711;SDS011;10517;50.742;4.224;2022-12-18T13:31:14;17.57;;;6.87;;
20711;SDS011;10517;50.742;4.224;2022-12-18T13:36:47;15.97;;;7.37;;
20711;SDS011;10517;50.742;4.224;2022-12-18T13:42:37;18.27;;;7.80;;
20711;SDS011;10517;50.742;4.224;2022-12-18T13:47:05;16.60;;;7.47;;
20711;SDS011;10517;50.742;4.224;2022-12-18T13:49:51;17.50;;;7.03;;
20711;SDS011;10517;50.742;4.224;2022-12-18T13:52:21;13.97;;;6.37;;
20711;SDS011;10517;50.742;4.224;2022-12-18T13:54:59;9.80;;;4.50;;
20711;SDS011;10517;50.742;4.224;2022-12-18T13:57:30;18.87;;;6.77;;
20711;SDS011;10517;50.742;4.224;2022-12-18T14:02:52;17.27;;;7.00;;
20711;SDS011;10517;50.742;4.224;2022-12-18T14:07:51;19.27;;;7.67;;
20711;SDS011;10517;50.742;4.224;2022-12-18T14:10:18;17.27;;;5.83;;
20711;SDS011;10517;50.742;4.224;2022-12-18T14:12:44;16.83;;;6.20;;
20711;SDS011;10517;50.742;4.224;2022-12-18T14:15:24;19.87;;;7.77;;
20711;SDS011;10517;50.742;4.224;2022-12-18T14:17:52;19.57;;;8.10;;
20711;SDS011;10517;50.742;4.224;2022-12-18T14:20:24;13.10;;;6.40;;
20711;SDS011;10517;50.742;4.224;2022-12-18T14:22:51;20.77;;;8.03;;
20711;SDS011;10517;50.742;4.224;2022-12-18T14:25:21;17.77;;;7.27;;
20711;SDS011;10517;50.742;4.224;2022-12-18T14:30:36;11.90;;;5.57;;
20711;SDS011;10517;50.742;4.224;2022-12-18T14:35:33;21.53;;;8.23;;
20711;SDS011;10517;50.742;4.224;2022-12-18T14:38:11;15.43;;;7.37;;
20711;SDS011;10517;50.742;4.224;2022-12-18T14:40:53;14.87;;;6.93;;
20711;SDS011;10517;50.742;4.224;2022-12-18T14:43:20;16.07;;;6.83;;
20711;SDS011;10517;50.742;4.224;2022-12-18T14:45:46;25.30;;;9.57;;
20711;SDS011;10517;50.742;4.224;2022-12-18T14:48:20;10.63;;;4.87;;
20711;SDS011;10517;50.742;4.224;2022-12-18T14:53:39;19.97;;;8.97;;
20711;SDS011;10517;50.742;4.224;2022-12-18T14:56:13;19.70;;;7.23;;
20711;SDS011;10517;50.742;4.224;2022-12-18T14:58:45;22.23;;;7.83;;
20711;SDS011;10517;50.742;4.224;2022-12-18T15:01:20;17.57;;;8.03;;
20711;SDS011;10517;50.742;4.224;2022-12-18T15:03:49;22.60;;;9.97;;
20711;SDS011;10517;50.742;4.224;2022-12-18T15:09:03;19.93;;;7.40;;
20711;SDS011;10517;50.742;4.224;2022-12-18T15:14:21;14.40;;;5.83;;
20711;SDS011;10517;50.742;4.224;2022-12-18T15:16:52;13.40;;;6.57;;
20711;SDS011;10517;50.742;4.224;2022-12-18T15:19:20;23.77;;;8.37;;
20711;SDS011;10517;50.742;4.224;2022-12-18T15:21:47;17.70;;;7.77;;
20711;SDS011;10517;50.742;4.224;2022-12-18T15:24:16;20.13;;;6.83;;
20711;SDS011;10517;50.742;4.224;2022-12-18T15:26:46;15.67;;;7.60;;
20711;SDS011;10517;50.742;4.224;2022-12-18T15:29:18;13.30;;;6.33;;
20711;SDS011;10517;50.742;4.224;2022-12-18T15:32:04;14.87;;;6.23;;
20711;SDS011;10517;50.742;4.224;2022-12-18T15:34:40;10.73;;;5.47;;
20711;SDS011;10517;50.742;4.224;2022-12-18T15:37:06;19.80;;;7.20;;
20711;SDS011;10517;50.742;4.224;2022-12-18T15:39:32;16.57;;;7.83;;
20711;SDS011;10517;50.742;4.224;2022-12-18T15:42:00;13.53;;;6.50;;
20711;SDS011;10517;50.742;4.224;2022-12-18T15:44:55;17.77;;;7.50;;
20711;SDS011;10517;50.742;4.224;2022-12-18T15:47:21;15.53;;;5.63;;
20711;SDS011;10517;50.742;4.224;2022-12-18T15:49:47;15.27;;;7.90;;
20711;SDS011;10517;50.742;4.224;2022-12-18T15:52:12;20.47;;;7.70;;
20711;SDS011;10517;50.742;4.224;2022-12-18T15:54:39;6.67;;;3.63;;
20711;SDS011;10517;50.742;4.224;2022-12-18T15:57:23;14.77;;;7.93;;
20711;SDS011;10517;50.742;4.224;2022-12-18T15:59:49;20.33;;;7.23;;
20711;SDS011;10517;50.742;4.224;2022-12-18T16:02:16;17.37;;;6.03;;
20711;SDS011;10517;50.742;4.224;2022-12-18T16:04:42;16.70;;;6.27;;
20711;SDS011;10517;50.742;4.224;2022-12-18T16:07:09;11.33;;;5.60;;
20711;SDS011;10517;50.742;4.224;2022-12-18T16:09:34;18.93;;;5.70;;
20711;SDS011;10517;50.742;4.224;2022-12-18T16:12:00;14.67;;;6.57;;
20711;SDS011;10517;50.742;4.224;2022-12-18T16:14:27;6.13;;;3.47;;
20711;SDS011;10517;50.742;4.224;2022-12-18T16:16:55;18.00;;;7.47;;
20711;SDS011;10517;50.742;4.224;2022-12-18T16:19:25;15.20;;;6.40;;
20711;SDS011;10517;50.742;4.224;2022-12-18T16:21:54;12.23;;;5.33;;
20711;SDS011;10517;50.742;4.224;2022-12-18T16:24:25;17.90;;;7.90;;
20711;SDS011;10517;50.742;4.224;2022-12-18T16:26:56;17.50;;;6.57;;
20711;SDS011;10517;50.742;4.224;2022-12-18T16:29:24;20.93;;;6.67;;
20711;SDS011;10517;50.742;4.224;2022-12-18T16:32:01;14.93;;;7.13;;
20711;SDS011;10517;50.742;4.224;2022-12-18T16:34:28;20.20;;;6.57;;
20711;SDS011;10517;50.742;4.224;2022-12-18T16:36:56;18.83;;;6.70;;
20711;SDS011;10517;50.742;4.224;2022-12-18T16:39:23;16.23;;;5.63;;
20711;SDS011;10517;50.742;4.224;2022-12-18T16:41:49;16.50;;;7.00;;
20711;SDS011;10517;50.742;4.224;2022-12-18T16:44:15;17.53;;;7.63;;